Portada
METAR-TAF:

METAR-TAF

Aeroports :

Latacunga, Equador

latitud: 00-55S, longitud: 078-37W, altitud: 2785 m

Observació

L'informe es va fer fa 1 hora i 6 minuts, a les 07:00 UTC
Vent 6 kt del Sud
Temperatura 9°C
Humitat 100%
Pressió 1029 hPa
Visibilitat 10 km o més
Cel ennuvolat a una alçada de 3000 ft

METAR: SELT 210700Z 19006KT 9999 BKN030 09/09 Q1029

Hora: 03:06 (08:06 UTC)

Pronòstic

L'informe es va fer fa 3 hores i 56 minuts, a les 04:10 UTC
Pronòstic vàlid del 21 a les 06 UTC al 22 a les 06 UTC
Vent 6 kt del Sud
Visibilitat 10 km o més
Cel ennuvolat a una alçada de 3000 ft
Núvols disperses a una alçada de 10000 ft
Temporalment
l' 21 a les 18 UTC al 21 a les 20 UTC
Vent 16 kt del Sud

TAF: SELT 210410Z 2106/2206 18006KT 9999 BKN030 SCT100 TEMPO 2118/2120 18016KT TX17/2119Z TN08/2111Z

Observacions i pronòstics meteorològics de més de 4000 aeroports (METAR i TAF).

Les estacions disponibles són els punts grocs i vermells al mapa.

Posi el ratolí al punt desitjat per veure el nom de l'estació.

Feu clic per veure les observacions i els pronòstics meteorològics.

Per canviar el mapa: feu clic els botons verds amb una creu de color negre per apropar; al botó verd amb un guió per allunyar la imatge; o en les fletxes verdes per a mapes adjacents.


METAR-TAF: